sensor_id;sensor_type;location;lat;lon;timestamp;pressure;altitude;pressure_sealevel;temperature;humidity
21300;BME280;10809;49.476;11.016;2023-01-26T00:02:27;98918.03;;;0.38;69.79
21300;BME280;10809;49.476;11.016;2023-01-26T00:04:58;98905.03;;;0.38;69.86
21300;BME280;10809;49.476;11.016;2023-01-26T00:07:28;98910.22;;;0.38;69.66
21300;BME280;10809;49.476;11.016;2023-01-26T00:09:59;98898.06;;;0.37;69.67
21300;BME280;10809;49.476;11.016;2023-01-26T00:12:29;98899.81;;;0.38;69.93
21300;BME280;10809;49.476;11.016;2023-01-26T00:14:59;98893.72;;;0.38;69.45
21300;BME280;10809;49.476;11.016;2023-01-26T00:17:30;98892.00;;;0.38;69.63
21300;BME280;10809;49.476;11.016;2023-01-26T00:20:00;98891.13;;;0.38;69.57
21300;BME280;10809;49.476;11.016;2023-01-26T00:22:31;98885.06;;;0.36;69.99
21300;BME280;10809;49.476;11.016;2023-01-26T00:25:01;98891.13;;;0.36;69.65
21300;BME280;10809;49.476;11.016;2023-01-26T00:27:32;98872.03;;;0.34;69.65
21300;BME280;10809;49.476;11.016;2023-01-26T00:30:04;98870.31;;;0.33;69.73
21300;BME280;10809;49.476;11.016;2023-01-26T00:32:35;98862.50;;;0.32;69.52
21300;BME280;10809;49.476;11.016;2023-01-26T00:35:06;98862.50;;;0.32;69.99
21300;BME280;10809;49.476;11.016;2023-01-26T00:37:41;98861.63;;;0.31;69.81
21300;BME280;10809;49.476;11.016;2023-01-26T00:40:11;98853.00;;;0.31;69.68
21300;BME280;10809;49.476;11.016;2023-01-26T00:42:42;98846.00;;;0.31;69.74
21300;BME280;10809;49.476;11.016;2023-01-26T00:45:12;98846.00;;;0.31;70.06
21300;BME280;10809;49.476;11.016;2023-01-26T00:47:43;98835.59;;;0.30;70.05
21300;BME280;10809;49.476;11.016;2023-01-26T00:50:14;98829.56;;;0.31;69.79
21300;BME280;10809;49.476;11.016;2023-01-26T00:52:44;98827.78;;;0.31;69.98
21300;BME280;10809;49.476;11.016;2023-01-26T00:55:15;98819.13;;;0.31;70.08
21300;BME280;10809;49.476;11.016;2023-01-26T00:57:45;98820.84;;;0.33;69.66
21300;BME280;10809;49.476;11.016;2023-01-26T01:00:16;98820.84;;;0.33;70.02
21300;BME280;10809;49.476;11.016;2023-01-26T01:02:47;98823.47;;;0.32;70.00
21300;BME280;10809;49.476;11.016;2023-01-26T01:05:18;98814.75;;;0.33;69.71
21300;BME280;10809;49.476;11.016;2023-01-26T01:07:50;98809.56;;;0.33;69.83
21300;BME280;10809;49.476;11.016;2023-01-26T01:10:21;98799.16;;;0.31;69.57
21300;BME280;10809;49.476;11.016;2023-01-26T01:12:52;98814.78;;;0.31;69.57
21300;BME280;10809;49.476;11.016;2023-01-26T01:15:23;98806.13;;;0.31;69.58
21300;BME280;10809;49.476;11.016;2023-01-26T01:17:54;98800.91;;;0.29;69.85
21300;BME280;10809;49.476;11.016;2023-01-26T01:20:24;98800.03;;;0.29;69.76
21300;BME280;10809;49.476;11.016;2023-01-26T01:22:55;98801.75;;;0.30;69.69
21300;BME280;10809;49.476;11.016;2023-01-26T01:25:25;98798.31;;;0.28;69.76
21300;BME280;10809;49.476;11.016;2023-01-26T01:27:56;98799.16;;;0.28;69.63
21300;BME280;10809;49.476;11.016;2023-01-26T01:30:26;98797.44;;;0.27;69.93
21300;BME280;10809;49.476;11.016;2023-01-26T01:32:57;98798.34;;;0.26;70.09
21300;BME280;10809;49.476;11.016;2023-01-26T01:35:27;98785.34;;;0.25;70.14
21300;BME280;10809;49.476;11.016;2023-01-26T01:37:58;98787.94;;;0.25;69.68
21300;BME280;10809;49.476;11.016;2023-01-26T01:40:29;98787.06;;;0.24;69.94
21300;BME280;10809;49.476;11.016;2023-01-26T01:42:59;98790.53;;;0.23;69.86
21300;BME280;10809;49.476;11.016;2023-01-26T01:45:46;98783.59;;;0.22;69.60
21300;BME280;10809;49.476;11.016;2023-01-26T01:51:20;98783.59;;;0.22;70.34
21300;BME280;10809;49.476;11.016;2023-01-26T01:53:56;98785.34;;;0.23;69.91
21300;BME280;10809;49.476;11.016;2023-01-26T01:56:31;98781.88;;;0.21;69.96
21300;BME280;10809;49.476;11.016;2023-01-26T01:59:04;98786.22;;;0.21;69.95
21300;BME280;10809;49.476;11.016;2023-01-26T02:01:37;98782.75;;;0.20;70.30
21300;BME280;10809;49.476;11.016;2023-01-26T02:04:08;98787.09;;;0.21;70.24
21300;BME280;10809;49.476;11.016;2023-01-26T02:06:49;98781.88;;;0.21;70.29
21300;BME280;10809;49.476;11.016;2023-01-26T02:09:25;98781.00;;;0.21;70.08
21300;BME280;10809;49.476;11.016;2023-01-26T02:12:20;98777.53;;;0.22;69.90
21300;BME280;10809;49.476;11.016;2023-01-26T02:14:52;98779.28;;;0.21;69.68
21300;BME280;10809;49.476;11.016;2023-01-26T02:17:25;98780.97;;;0.22;70.03
21300;BME280;10809;49.476;11.016;2023-01-26T02:20:36;98777.56;;;0.20;70.16
21300;BME280;10809;49.476;11.016;2023-01-26T02:26:07;98776.69;;;0.20;70.21
21300;BME280;10809;49.476;11.016;2023-01-26T02:28:41;98774.06;;;0.20;70.10
21300;BME280;10809;49.476;11.016;2023-01-26T02:31:14;98774.97;;;0.19;70.11
21300;BME280;10809;49.476;11.016;2023-01-26T02:33:45;98767.16;;;0.19;70.08
21300;BME280;10809;49.476;11.016;2023-01-26T02:36:19;98755.84;;;0.18;70.15
21300;BME280;10809;49.476;11.016;2023-01-26T02:41:37;98761.06;;;0.18;70.42
21300;BME280;10809;49.476;11.016;2023-01-26T02:44:28;98750.66;;;0.18;70.12
21300;BME280;10809;49.476;11.016;2023-01-26T02:46:58;98752.38;;;0.18;70.35
21300;BME280;10809;49.476;11.016;2023-01-26T02:49:29;98749.78;;;0.18;70.04
21300;BME280;10809;49.476;11.016;2023-01-26T02:52:24;98754.16;;;0.17;70.16
21300;BME280;10809;49.476;11.016;2023-01-26T02:55:03;98747.19;;;0.16;69.93
21300;BME280;10809;49.476;11.016;2023-01-26T02:58:05;98746.34;;;0.14;69.64
21300;BME280;10809;49.476;11.016;2023-01-26T03:00:37;98739.41;;;0.12;69.83
21300;BME280;10809;49.476;11.016;2023-01-26T03:03:24;98741.19;;;0.08;69.67
21300;BME280;10809;49.476;11.016;2023-01-26T03:06:11;98737.72;;;0.06;70.17
21300;BME280;10809;49.476;11.016;2023-01-26T03:08:42;98741.19;;;0.05;70.11
21300;BME280;10809;49.476;11.016;2023-01-26T03:11:13;98740.34;;;0.05;70.08
21300;BME280;10809;49.476;11.016;2023-01-26T03:13:44;98728.16;;;0.05;69.86
21300;BME280;10809;49.476;11.016;2023-01-26T03:16:14;98735.97;;;0.05;70.19
21300;BME280;10809;49.476;11.016;2023-01-26T03:18:47;98725.56;;;0.05;70.55
21300;BME280;10809;49.476;11.016;2023-01-26T03:21:33;98719.50;;;0.06;70.22
21300;BME280;10809;49.476;11.016;2023-01-26T03:24:22;98729.91;;;0.06;69.88
21300;BME280;10809;49.476;11.016;2023-01-26T03:27:11;98728.16;;;0.07;69.96
21300;BME280;10809;49.476;11.016;2023-01-26T03:29:57;98720.38;;;0.05;69.96
21300;BME280;10809;49.476;11.016;2023-01-26T03:32:28;98727.31;;;0.05;70.01
21300;BME280;10809;49.476;11.016;2023-01-26T03:34:59;98726.47;;;0.03;70.03
21300;BME280;10809;49.476;11.016;2023-01-26T03:37:29;98713.44;;;0.03;70.28
21300;BME280;10809;49.476;11.016;2023-01-26T03:40:12;98723.88;;;0.03;69.93
21300;BME280;10809;49.476;11.016;2023-01-26T03:43:06;98712.56;;;0.02;70.28
21300;BME280;10809;49.476;11.016;2023-01-26T03:45:56;98703.03;;;0.03;70.44
21300;BME280;10809;49.476;11.016;2023-01-26T03:48:45;98702.16;;;0.02;70.49
21300;BME280;10809;49.476;11.016;2023-01-26T03:51:34;98709.13;;;0.03;70.41
21300;BME280;10809;49.476;11.016;2023-01-26T03:54:23;98706.50;;;0.05;70.31
21300;BME280;10809;49.476;11.016;2023-01-26T03:57:12;98713.44;;;0.04;70.25
21300;BME280;10809;49.476;11.016;2023-01-26T03:59:43;98703.91;;;0.05;70.23
21300;BME280;10809;49.476;11.016;2023-01-26T04:02:19;98701.31;;;0.05;70.24
21300;BME280;10809;49.476;11.016;2023-01-26T04:05:09;98707.34;;;0.07;70.04
21300;BME280;10809;49.476;11.016;2023-01-26T04:08:05;98703.00;;;0.07;70.57
21300;BME280;10809;49.476;11.016;2023-01-26T04:11:04;98699.53;;;0.07;70.20
21300;BME280;10809;49.476;11.016;2023-01-26T04:13:34;98709.09;;;0.08;70.12
21300;BME280;10809;49.476;11.016;2023-01-26T04:16:32;98705.59;;;0.09;70.65
21300;BME280;10809;49.476;11.016;2023-01-26T04:19:22;98705.59;;;0.09;70.41
21300;BME280;10809;49.476;11.016;2023-01-26T04:22:11;98702.97;;;0.10;70.10
21300;BME280;10809;49.476;11.016;2023-01-26T04:24:45;98708.19;;;0.09;70.21
21300;BME280;10809;49.476;11.016;2023-01-26T04:27:15;98709.94;;;0.10;70.13
21300;BME280;10809;49.476;11.016;2023-01-26T04:29:46;98702.13;;;0.10;70.57
21300;BME280;10809;49.476;11.016;2023-01-26T04:32:18;98699.56;;;0.08;70.21
21300;BME280;10809;49.476;11.016;2023-01-26T04:34:48;98697.78;;;0.09;70.49
21300;BME280;10809;49.476;11.016;2023-01-26T04:37:24;98698.69;;;0.08;70.23
21300;BME280;10809;49.476;11.016;2023-01-26T04:39:55;98704.75;;;0.08;70.50
21300;BME280;10809;49.476;11.016;2023-01-26T04:42:26;98702.16;;;0.08;70.20
21300;BME280;10809;49.476;11.016;2023-01-26T04:44:57;98707.34;;;0.08;70.75
21300;BME280;10809;49.476;11.016;2023-01-26T04:47:28;98701.28;;;0.08;70.14
21300;BME280;10809;49.476;11.016;2023-01-26T04:49:59;98699.56;;;0.08;70.08
21300;BME280;10809;49.476;11.016;2023-01-26T04:52:30;98700.41;;;0.07;69.87
21300;BME280;10809;49.476;11.016;2023-01-26T04:55:00;98702.13;;;0.07;70.29
21300;BME280;10809;49.476;11.016;2023-01-26T04:57:34;98701.28;;;0.06;70.22
21300;BME280;10809;49.476;11.016;2023-01-26T05:00:07;98694.34;;;0.05;70.42
21300;BME280;10809;49.476;11.016;2023-01-26T05:02:39;98692.59;;;0.06;70.24
21300;BME280;10809;49.476;11.016;2023-01-26T05:05:11;98691.75;;;0.04;70.06
21300;BME280;10809;49.476;11.016;2023-01-26T05:07:42;98690.03;;;0.04;70.23
21300;BME280;10809;49.476;11.016;2023-01-26T05:10:14;98689.13;;;0.05;70.19
21300;BME280;10809;49.476;11.016;2023-01-26T05:13:17;98689.13;;;0.05;70.44
21300;BME280;10809;49.476;11.016;2023-01-26T05:16:06;98691.72;;;0.05;70.40
21300;BME280;10809;49.476;11.016;2023-01-26T05:18:55;98693.50;;;0.05;70.30
21300;BME280;10809;49.476;11.016;2023-01-26T05:21:39;98689.13;;;0.05;70.15
21300;BME280;10809;49.476;11.016;2023-01-26T05:24:10;98698.69;;;0.05;70.36
21300;BME280;10809;49.476;11.016;2023-01-26T05:27:03;98703.03;;;0.04;70.01
21300;BME280;10809;49.476;11.016;2023-01-26T05:30:02;98703.91;;;0.03;70.06
21300;BME280;10809;49.476;11.016;2023-01-26T05:32:36;98700.44;;;0.01;69.98
21300;BME280;10809;49.476;11.016;2023-01-26T05:35:07;98698.75;;;0.00;70.40
21300;BME280;10809;49.476;11.016;2023-01-26T05:37:38;98699.59;;;-0.01;70.60
21300;BME280;10809;49.476;11.016;2023-01-26T05:40:09;98706.56;;;-0.01;70.44
21300;BME280;10809;49.476;11.016;2023-01-26T05:42:42;98704.81;;;-0.02;70.34
21300;BME280;10809;49.476;11.016;2023-01-26T05:45:31;98714.38;;;-0.03;70.20
21300;BME280;10809;49.476;11.016;2023-01-26T05:48:05;98703.09;;;-0.03;70.52
21300;BME280;10809;49.476;11.016;2023-01-26T05:50:35;98694.41;;;-0.04;70.51
21300;BME280;10809;49.476;11.016;2023-01-26T05:53:21;98701.38;;;-0.04;70.48
21300;BME280;10809;49.476;11.016;2023-01-26T05:55:52;98702.19;;;-0.02;70.43
21300;BME280;10809;49.476;11.016;2023-01-26T05:58:26;98697.00;;;-0.04;70.51
21300;BME280;10809;49.476;11.016;2023-01-26T06:00:57;98707.41;;;-0.04;70.43
21300;BME280;10809;49.476;11.016;2023-01-26T06:03:33;98703.97;;;-0.03;70.39
21300;BME280;10809;49.476;11.016;2023-01-26T06:06:03;98697.88;;;-0.02;70.49
21300;BME280;10809;49.476;11.016;2023-01-26T06:08:43;98699.59;;;-0.02;70.26
21300;BME280;10809;49.476;11.016;2023-01-26T06:11:46;98702.19;;;-0.02;70.59
21300;BME280;10809;49.476;11.016;2023-01-26T06:14:28;98696.16;;;-0.03;70.52
21300;BME280;10809;49.476;11.016;2023-01-26T06:16:59;98704.81;;;-0.04;70.18
21300;BME280;10809;49.476;11.016;2023-01-26T06:19:29;98697.03;;;-0.05;70.42
21300;BME280;10809;49.476;11.016;2023-01-26T06:22:06;98696.19;;;-0.06;70.30
21300;BME280;10809;49.476;11.016;2023-01-26T06:24:37;98694.44;;;-0.07;70.33
21300;BME280;10809;49.476;11.016;2023-01-26T06:27:13;98702.25;;;-0.07;70.67
21300;BME280;10809;49.476;11.016;2023-01-26T06:29:46;98702.25;;;-0.07;70.34
21300;BME280;10809;49.476;11.016;2023-01-26T06:32:18;98701.41;;;-0.07;70.23
21300;BME280;10809;49.476;11.016;2023-01-26T06:34:53;98704.00;;;-0.07;70.40
21300;BME280;10809;49.476;11.016;2023-01-26T06:37:25;98708.31;;;-0.08;70.67
21300;BME280;10809;49.476;11.016;2023-01-26T06:39:56;98710.06;;;-0.08;70.53
21300;BME280;10809;49.476;11.016;2023-01-26T06:42:27;98710.94;;;-0.08;70.54
21300;BME280;10809;49.476;11.016;2023-01-26T06:44:58;98710.06;;;-0.08;70.34
21300;BME280;10809;49.476;11.016;2023-01-26T06:47:28;98706.63;;;-0.09;70.56
21300;BME280;10809;49.476;11.016;2023-01-26T06:49:59;98708.31;;;-0.08;70.75
21300;BME280;10809;49.476;11.016;2023-01-26T06:52:31;98697.91;;;-0.08;70.42
21300;BME280;10809;49.476;11.016;2023-01-26T06:55:20;98695.31;;;-0.08;70.98
21300;BME280;10809;49.476;11.016;2023-01-26T06:57:58;98697.91;;;-0.06;70.60
21300;BME280;10809;49.476;11.016;2023-01-26T07:01:00;98697.91;;;-0.06;70.86
21300;BME280;10809;49.476;11.016;2023-01-26T07:03:36;98696.19;;;-0.07;70.88
21300;BME280;10809;49.476;11.016;2023-01-26T07:06:07;98691.81;;;-0.07;70.24
21300;BME280;10809;49.476;11.016;2023-01-26T07:08:40;98700.53;;;-0.08;70.60
21300;BME280;10809;49.476;11.016;2023-01-26T07:11:11;98698.81;;;-0.09;70.63
21300;BME280;10809;49.476;11.016;2023-01-26T07:13:42;98698.81;;;-0.09;70.59
21300;BME280;10809;49.476;11.016;2023-01-26T07:16:15;98698.81;;;-0.09;70.74
21300;BME280;10809;49.476;11.016;2023-01-26T07:18:45;98694.44;;;-0.10;70.55
21300;BME280;10809;49.476;11.016;2023-01-26T07:21:17;98698.81;;;-0.09;71.07
21300;BME280;10809;49.476;11.016;2023-01-26T07:23:48;98692.72;;;-0.09;70.79
21300;BME280;10809;49.476;11.016;2023-01-26T07:26:20;98694.44;;;-0.08;70.72
21300;BME280;10809;49.476;11.016;2023-01-26T07:28:50;98701.41;;;-0.07;70.98
21300;BME280;10809;49.476;11.016;2023-01-26T07:31:21;98694.44;;;-0.07;71.02
21300;BME280;10809;49.476;11.016;2023-01-26T07:33:54;98697.91;;;-0.05;70.93
21300;BME280;10809;49.476;11.016;2023-01-26T07:36:24;98700.50;;;-0.05;70.65
21300;BME280;10809;49.476;11.016;2023-01-26T07:38:55;98702.22;;;-0.04;70.90
21300;BME280;10809;49.476;11.016;2023-01-26T07:41:26;98690.06;;;-0.03;70.86
21300;BME280;10809;49.476;11.016;2023-01-26T07:43:56;98698.75;;;-0.03;70.58
21300;BME280;10809;49.476;11.016;2023-01-26T07:46:27;98695.28;;;-0.02;71.21
21300;BME280;10809;49.476;11.016;2023-01-26T07:48:57;98690.06;;;-0.02;70.79
21300;BME280;10809;49.476;11.016;2023-01-26T07:51:27;98691.78;;;-0.01;70.91
21300;BME280;10809;49.476;11.016;2023-01-26T07:53:58;98683.16;;;-0.03;71.04
21300;BME280;10809;49.476;11.016;2023-01-26T07:56:29;98684.88;;;-0.02;70.76
21300;BME280;10809;49.476;11.016;2023-01-26T07:58:59;98677.94;;;-0.01;70.88
21300;BME280;10809;49.476;11.016;2023-01-26T08:01:35;98683.13;;;-0.01;70.83
21300;BME280;10809;49.476;11.016;2023-01-26T08:04:06;98681.38;;;-0.01;70.67
21300;BME280;10809;49.476;11.016;2023-01-26T08:06:36;98681.38;;;-0.01;70.61
21300;BME280;10809;49.476;11.016;2023-01-26T08:09:07;98683.13;;;0.00;70.60
21300;BME280;10809;49.476;11.016;2023-01-26T08:11:38;98694.38;;;0.01;71.02
21300;BME280;10809;49.476;11.016;2023-01-26T08:14:08;98696.97;;;0.01;70.88
21300;BME280;10809;49.476;11.016;2023-01-26T08:16:39;98690.03;;;0.01;70.68
21300;BME280;10809;49.476;11.016;2023-01-26T08:19:09;98691.75;;;0.02;70.50
21300;BME280;10809;49.476;11.016;2023-01-26T08:21:39;98688.31;;;0.00;70.54
21300;BME280;10809;49.476;11.016;2023-01-26T08:24:11;98690.06;;;-0.00;70.77
21300;BME280;10809;49.476;11.016;2023-01-26T08:26:41;98690.06;;;-0.02;70.32
21300;BME280;10809;49.476;11.016;2023-01-26T08:29:12;98687.47;;;-0.02;70.78
21300;BME280;10809;49.476;11.016;2023-01-26T08:31:42;98685.75;;;-0.03;70.62
21300;BME280;10809;49.476;11.016;2023-01-26T08:34:13;98681.41;;;-0.04;70.65
21300;BME280;10809;49.476;11.016;2023-01-26T08:36:43;98676.19;;;-0.04;70.40
21300;BME280;10809;49.476;11.016;2023-01-26T08:39:14;98682.28;;;-0.05;70.59
21300;BME280;10809;49.476;11.016;2023-01-26T08:41:45;98684.00;;;-0.05;70.47
21300;BME280;10809;49.476;11.016;2023-01-26T08:44:16;98689.22;;;-0.05;70.86
21300;BME280;10809;49.476;11.016;2023-01-26T08:46:46;98689.22;;;-0.07;70.53
21300;BME280;10809;49.476;11.016;2023-01-26T08:49:17;98693.59;;;-0.07;70.49
21300;BME280;10809;49.476;11.016;2023-01-26T08:51:47;98684.03;;;-0.08;70.61
21300;BME280;10809;49.476;11.016;2023-01-26T08:54:18;98690.13;;;-0.08;70.67
21300;BME280;10809;49.476;11.016;2023-01-26T08:56:48;98691.00;;;-0.09;70.44
21300;BME280;10809;49.476;11.016;2023-01-26T08:59:19;98697.94;;;-0.09;70.34
21300;BME280;10809;49.476;11.016;2023-01-26T09:01:49;98689.25;;;-0.10;70.10
21300;BME280;10809;49.476;11.016;2023-01-26T09:04:19;98680.63;;;-0.12;70.31
21300;BME280;10809;49.476;11.016;2023-01-26T09:06:50;98675.41;;;-0.13;70.55
21300;BME280;10809;49.476;11.016;2023-01-26T09:09:20;98678.03;;;-0.13;70.26
21300;BME280;10809;49.476;11.016;2023-01-26T09:11:54;98680.63;;;-0.13;70.57
21300;BME280;10809;49.476;11.016;2023-01-26T09:14:24;98685.81;;;-0.13;70.35
21300;BME280;10809;49.476;11.016;2023-01-26T09:16:55;98683.25;;;-0.15;70.64
21300;BME280;10809;49.476;11.016;2023-01-26T09:19:25;98686.69;;;-0.16;70.46
21300;BME280;10809;49.476;11.016;2023-01-26T09:21:56;98697.13;;;-0.17;70.17
21300;BME280;10809;49.476;11.016;2023-01-26T09:24:26;98690.19;;;-0.20;70.31
21300;BME280;10809;49.476;11.016;2023-01-26T09:26:56;98699.72;;;-0.20;70.28
21300;BME280;10809;49.476;11.016;2023-01-26T09:29:27;98703.22;;;-0.21;70.42
21300;BME280;10809;49.476;11.016;2023-01-26T09:31:57;98712.75;;;-0.22;70.43
21300;BME280;10809;49.476;11.016;2023-01-26T09:34:28;98704.94;;;-0.20;70.53
21300;BME280;10809;49.476;11.016;2023-01-26T09:36:58;98702.34;;;-0.20;70.60
21300;BME280;10809;49.476;11.016;2023-01-26T09:39:29;98706.69;;;-0.21;70.33
21300;BME280;10809;49.476;11.016;2023-01-26T09:45:29;98710.09;;;-0.16;70.76
21300;BME280;10809;49.476;11.016;2023-01-26T09:51:10;98716.19;;;-0.14;70.83
21300;BME280;10809;49.476;11.016;2023-01-26T09:56:25;98705.75;;;-0.12;70.81
21300;BME280;10809;49.476;11.016;2023-01-26T10:01:55;98704.88;;;-0.10;70.99
21300;BME280;10809;49.476;11.016;2023-01-26T10:04:39;98706.63;;;-0.09;70.54
21300;BME280;10809;49.476;11.016;2023-01-26T10:07:12;98700.53;;;-0.08;70.43
21300;BME280;10809;49.476;11.016;2023-01-26T10:09:49;98697.91;;;-0.06;70.78
21300;BME280;10809;49.476;11.016;2023-01-26T10:12:34;98695.31;;;-0.06;70.66
21300;BME280;10809;49.476;11.016;2023-01-26T10:15:29;98696.19;;;-0.06;70.51
21300;BME280;10809;49.476;11.016;2023-01-26T10:18:04;98697.03;;;-0.07;70.53
21300;BME280;10809;49.476;11.016;2023-01-26T10:20:38;98698.78;;;-0.04;71.01
21300;BME280;10809;49.476;11.016;2023-01-26T10:23:15;98701.38;;;-0.04;71.00
21300;BME280;10809;49.476;11.016;2023-01-26T10:25:46;98695.28;;;-0.03;70.78
21300;BME280;10809;49.476;11.016;2023-01-26T10:28:26;98694.41;;;-0.02;70.86
21300;BME280;10809;49.476;11.016;2023-01-26T10:30:58;98697.00;;;-0.01;70.81
21300;BME280;10809;49.476;11.016;2023-01-26T10:33:32;98688.31;;;0.00;70.63
21300;BME280;10809;49.476;11.016;2023-01-26T10:36:05;98690.03;;;0.01;70.29
21300;BME280;10809;49.476;11.016;2023-01-26T10:41:27;98695.25;;;0.01;70.49
21300;BME280;10809;49.476;11.016;2023-01-26T10:44:19;98690.91;;;0.02;70.78
21300;BME280;10809;49.476;11.016;2023-01-26T10:47:14;98685.72;;;0.02;70.47
21300;BME280;10809;49.476;11.016;2023-01-26T10:49:44;98680.53;;;0.00;70.43
21300;BME280;10809;49.476;11.016;2023-01-26T10:52:22;98677.94;;;-0.03;70.09
21300;BME280;10809;49.476;11.016;2023-01-26T10:55:15;98678.81;;;-0.07;69.61
21300;BME280;10809;49.476;11.016;2023-01-26T10:57:49;98675.41;;;-0.12;69.52
21300;BME280;10809;49.476;11.016;2023-01-26T11:05:44;98664.19;;;-0.20;70.10
21300;BME280;10809;49.476;11.016;2023-01-26T11:08:31;98665.09;;;-0.22;70.30
21300;BME280;10809;49.476;11.016;2023-01-26T11:11:06;98671.13;;;-0.22;70.26
21300;BME280;10809;49.476;11.016;2023-01-26T11:13:42;98666.81;;;-0.23;69.96
21300;BME280;10809;49.476;11.016;2023-01-26T11:16:23;98665.09;;;-0.25;70.39
21300;BME280;10809;49.476;11.016;2023-01-26T11:19:02;98659.03;;;-0.26;70.10
21300;BME280;10809;49.476;11.016;2023-01-26T11:21:54;98658.16;;;-0.25;70.33
21300;BME280;10809;49.476;11.016;2023-01-26T11:24:54;98653.81;;;-0.23;70.60
21300;BME280;10809;49.476;11.016;2023-01-26T11:27:41;98651.19;;;-0.23;70.43
21300;BME280;10809;49.476;11.016;2023-01-26T11:30:24;98647.69;;;-0.20;70.71
21300;BME280;10809;49.476;11.016;2023-01-26T11:32:59;98639.88;;;-0.19;70.31
21300;BME280;10809;49.476;11.016;2023-01-26T11:38:38;98640.72;;;-0.15;70.36
21300;BME280;10809;49.476;11.016;2023-01-26T11:41:23;98646.81;;;-0.15;70.45
21300;BME280;10809;49.476;11.016;2023-01-26T11:44:19;98626.84;;;-0.14;70.23
21300;BME280;10809;49.476;11.016;2023-01-26T11:58:18;98612.13;;;-0.17;70.03
21300;BME280;10809;49.476;11.016;2023-01-26T12:01:02;98608.66;;;-0.19;69.96
21300;BME280;10809;49.476;11.016;2023-01-26T12:03:56;98608.66;;;-0.19;70.18
21300;BME280;10809;49.476;11.016;2023-01-26T12:06:39;98608.66;;;-0.19;70.20
21300;BME280;10809;49.476;11.016;2023-01-26T12:09:14;98618.22;;;-0.19;70.29
21300;BME280;10809;49.476;11.016;2023-01-26T12:22:36;98601.72;;;-0.18;69.84
21300;BME280;10809;49.476;11.016;2023-01-26T12:25:36;98588.75;;;-0.21;69.86
21300;BME280;10809;49.476;11.016;2023-01-26T12:31:05;98587.06;;;-0.25;69.81
21300;BME280;10809;49.476;11.016;2023-01-26T12:33:37;98588.78;;;-0.26;69.82
21300;BME280;10809;49.476;11.016;2023-01-26T12:42:02;98574.91;;;-0.25;70.25
21300;BME280;10809;49.476;11.016;2023-01-26T12:44:51;98569.69;;;-0.23;70.25
21300;BME280;10809;49.476;11.016;2023-01-26T12:53:16;98567.97;;;-0.24;69.84
21300;BME280;10809;49.476;11.016;2023-01-26T12:55:50;98566.25;;;-0.24;69.79
21300;BME280;10809;49.476;11.016;2023-01-26T12:58:32;98566.25;;;-0.24;69.98
21300;BME280;10809;49.476;11.016;2023-01-26T13:01:08;98561.00;;;-0.21;70.26
21300;BME280;10809;49.476;11.016;2023-01-26T13:03:43;98564.44;;;-0.20;70.06
21300;BME280;10809;49.476;11.016;2023-01-26T13:11:46;98556.59;;;-0.16;69.87
21300;BME280;10809;49.476;11.016;2023-01-26T13:14:30;98556.56;;;-0.13;69.88
21300;BME280;10809;49.476;11.016;2023-01-26T13:24:58;98550.50;;;-0.12;69.77
21300;BME280;10809;49.476;11.016;2023-01-26T13:30:37;98558.34;;;-0.13;69.38
21300;BME280;10809;49.476;11.016;2023-01-26T13:33:20;98562.66;;;-0.14;69.84
21300;BME280;10809;49.476;11.016;2023-01-26T13:35:52;98559.19;;;-0.14;69.77
21300;BME280;10809;49.476;11.016;2023-01-26T13:38:40;98567.00;;;-0.16;69.69
21300;BME280;10809;49.476;11.016;2023-01-26T13:41:17;98563.56;;;-0.15;69.58
21300;BME280;10809;49.476;11.016;2023-01-26T13:43:52;98567.00;;;-0.16;69.78
21300;BME280;10809;49.476;11.016;2023-01-26T13:46:35;98558.34;;;-0.15;69.87
21300;BME280;10809;49.476;11.016;2023-01-26T13:49:23;98554.88;;;-0.15;69.71
21300;BME280;10809;49.476;11.016;2023-01-26T13:51:54;98553.13;;;-0.13;69.59
21300;BME280;10809;49.476;11.016;2023-01-26T13:54:25;98547.03;;;-0.12;69.86
21300;BME280;10809;49.476;11.016;2023-01-26T13:57:00;98546.16;;;-0.13;70.05
21300;BME280;10809;49.476;11.016;2023-01-26T13:59:31;98545.31;;;-0.12;70.05
21300;BME280;10809;49.476;11.016;2023-01-26T14:02:10;98544.44;;;-0.12;69.92
21300;BME280;10809;49.476;11.016;2023-01-26T14:04:52;98563.50;;;-0.09;69.61
21300;BME280;10809;49.476;11.016;2023-01-26T14:07:27;98553.94;;;-0.10;69.77
21300;BME280;10809;49.476;11.016;2023-01-26T14:10:00;98554.81;;;-0.11;69.61
21300;BME280;10809;49.476;11.016;2023-01-26T14:12:41;98554.81;;;-0.11;69.78
21300;BME280;10809;49.476;11.016;2023-01-26T14:15:22;98561.75;;;-0.10;69.68
21300;BME280;10809;49.476;11.016;2023-01-26T14:18:01;98560.03;;;-0.11;69.67
21300;BME280;10809;49.476;11.016;2023-01-26T14:20:35;98553.97;;;-0.11;69.99
21300;BME280;10809;49.476;11.016;2023-01-26T14:25:37;98554.84;;;-0.12;69.63
21300;BME280;10809;49.476;11.016;2023-01-26T14:28:21;98560.94;;;-0.13;69.92
21300;BME280;10809;49.476;11.016;2023-01-26T14:30:59;98555.72;;;-0.13;69.91
21300;BME280;10809;49.476;11.016;2023-01-26T14:33:30;98561.78;;;-0.13;69.88
21300;BME280;10809;49.476;11.016;2023-01-26T14:36:02;98563.53;;;-0.12;70.06
21300;BME280;10809;49.476;11.016;2023-01-26T14:38:41;98570.47;;;-0.12;69.92
21300;BME280;10809;49.476;11.016;2023-01-26T14:41:27;98564.38;;;-0.13;69.70
21300;BME280;10809;49.476;11.016;2023-01-26T14:43:59;98574.78;;;-0.13;69.65
21300;BME280;10809;49.476;11.016;2023-01-26T14:49:37;98584.38;;;-0.16;69.40
21300;BME280;10809;49.476;11.016;2023-01-26T14:52:23;98592.19;;;-0.18;69.43
21300;BME280;10809;49.476;11.016;2023-01-26T14:54:57;98582.66;;;-0.19;69.27
21300;BME280;10809;49.476;11.016;2023-01-26T14:57:29;98589.63;;;-0.21;68.94
21300;BME280;10809;49.476;11.016;2023-01-26T15:00:01;98594.84;;;-0.24;69.12
21300;BME280;10809;49.476;11.016;2023-01-26T15:02:37;98587.91;;;-0.25;69.50
21300;BME280;10809;49.476;11.016;2023-01-26T15:05:13;98583.59;;;-0.26;69.27
21300;BME280;10809;49.476;11.016;2023-01-26T15:08:04;98593.09;;;-0.25;69.50
21300;BME280;10809;49.476;11.016;2023-01-26T15:13:29;98587.06;;;-0.25;69.68
21300;BME280;10809;49.476;11.016;2023-01-26T15:16:05;98590.53;;;-0.26;69.43